Time;durP1;ratioP1;P1;durP2;ratioP2;P2;SDS_P1;SDS_P2;PMS_P1;PMS_P2;Temp;Humidity;BMP_temperature;BMP_pressure;BME280_temperature;BME280_humidity;BME280_pressure;Samples;Min_cycle;Max_cycle;Signal;HPM_P1;HPM_P2
2022/05/04 00:00:14;;;;;;;54.33;19.00;;;;;;;28.12;54.49;97841.22;4853636;29;20053;-70
2022/05/04 00:02:50;;;;;;;42.40;19.65;;;;;;;28.08;55.47;97852.38;4842547;29;20130;-69
2022/05/04 00:05:33;;;;;;;41.90;18.17;;;;;;;28.02;56.04;97859.19;4835899;29;20046;-69
2022/05/04 00:08:30;;;;;;;47.53;20.40;;;;;;;28.05;56.04;97860.66;4835351;29;20378;-69
2022/05/04 00:11:06;;;;;;;49.85;21.25;;;;;;;28.05;57.12;97861.47;4834074;29;20064;-69
2022/05/04 00:13:54;;;;;;;46.17;18.77;;;;;;;28.03;58.45;97865.28;4835714;29;20491;-68
2022/05/04 00:16:36;;;;;;;59.88;19.90;;;;;;;28.00;58.79;97870.97;4834994;29;20046;-69
2022/05/04 00:19:25;;;;;;;39.92;19.45;;;;;;;27.98;58.25;97857.06;4835725;29;20146;-70
2022/05/04 00:22:07;;;;;;;58.28;18.98;;;;;;;28.01;59.74;97857.56;4835743;29;20053;-69
2022/05/04 00:24:57;;;;;;;49.40;18.95;;;;;;;28.00;62.19;97857.72;4835517;29;20452;-70
2022/05/04 00:27:47;;;;;;;56.15;21.65;;;;;;;27.95;58.88;97863.53;4823624;29;20621;-70
2022/05/04 00:30:30;;;;;;;45.97;19.35;;;;;;;27.92;60.92;97861.25;4832236;29;20125;-69
2022/05/04 00:33:18;;;;;;;54.20;19.95;;;;;;;27.93;61.24;97880.63;4831917;29;20058;-69
2022/05/04 00:36:00;;;;;;;42.33;19.08;;;;;;;27.91;62.62;97890.56;4821530;29;20057;-70
2022/05/04 00:38:49;;;;;;;70.00;20.05;;;;;;;27.91;60.24;97893.19;4835293;29;20426;-70
2022/05/04 00:41:39;;;;;;;55.45;19.63;;;;;;;27.95;59.38;97889.19;4826092;29;20152;-69
2022/05/04 00:44:28;;;;;;;67.80;21.00;;;;;;;27.97;59.46;97897.78;4834914;29;20441;-70
2022/05/04 00:47:17;;;;;;;80.50;20.23;;;;;;;27.94;59.95;97888.34;4833664;29;20145;-69
2022/05/04 00:50:07;;;;;;;52.97;19.00;;;;;;;27.95;60.48;97886.53;4834501;29;20562;-68
2022/05/04 00:52:56;;;;;;;65.63;19.85;;;;;;;27.96;61.56;97874.94;4833701;29;20807;-70
2022/05/04 00:55:39;;;;;;;71.00;19.95;;;;;;;27.94;60.14;97885.72;4834074;29;20058;-69
2022/05/04 01:01:31;;;;;;;62.47;18.15;;;;;;;27.93;60.27;97901.81;4826989;29;20122;-68
2022/05/04 01:04:19;;;;;;;76.40;18.10;;;;;;;27.96;58.73;97906.72;4834982;29;20076;-70
2022/05/04 01:07:08;;;;;;;68.35;16.30;;;;;;;27.96;58.51;97906.72;4819282;29;20062;-69
2022/05/04 01:09:57;;;;;;;71.78;17.20;;;;;;;27.99;59.68;97890.50;4832583;29;20042;-69
2022/05/04 01:12:52;;;;;;;67.25;17.50;;;;;;;28.05;59.34;97889.78;4838636;29;20605;-70
2022/05/04 01:15:41;;;;;;;67.05;16.67;;;;;;;28.04;59.84;97904.03;4832247;29;20467;-70
2022/05/04 01:18:36;;;;;;;62.92;16.85;;;;;;;28.06;61.33;97936.47;4832802;29;20573;-68
2022/05/04 01:21:12;;;;;;;58.45;15.57;;;;;;;28.13;59.47;97930.31;4823278;29;20141;-70
2022/05/04 01:24:07;;;;;;;58.08;14.38;;;;;;;28.15;57.98;97933.63;4841169;29;20090;-68
2022/05/04 01:26:43;;;;;;;60.42;13.18;;;;;;;28.16;57.93;97926.53;4853436;29;20053;-70
2022/05/04 01:29:32;;;;;;;58.40;12.70;;;;;;;28.26;59.32;97924.44;4852679;29;20060;-69
2022/05/04 01:32:21;;;;;;;61.78;12.60;;;;;;;28.29;57.69;97924.09;4852750;29;20053;-69
2022/05/04 01:35:04;;;;;;;68.60;11.65;;;;;;;28.37;57.69;97921.41;4838983;29;20057;-70
2022/05/04 01:37:52;;;;;;;63.75;11.82;;;;;;;28.44;58.08;97926.81;4835023;29;20508;-70
2022/05/04 01:40:34;;;;;;;52.97;10.23;;;;;;;28.62;59.53;97921.19;4834552;29;20554;-70
2022/05/04 01:43:29;;;;;;;59.60;9.07;;;;;;;28.63;56.80;97920.19;4837013;29;20499;-69
2022/05/04 01:46:19;;;;;;;62.40;9.90;;;;;;;28.71;58.08;97922.78;4834457;29;20046;-70
2022/05/04 01:49:07;;;;;;;65.00;10.07;;;;;;;28.84;56.50;97923.03;4834880;29;20145;-70
2022/05/04 01:51:56;;;;;;;61.55;8.18;;;;;;;28.93;57.01;97916.63;4834009;29;20054;-69
2022/05/04 01:54:38;;;;;;;52.58;8.35;;;;;;;29.09;57.76;97918.31;4831623;29;20776;-68
2022/05/04 01:57:27;;;;;;;56.63;8.63;;;;;;;29.04;57.91;97929.47;4832725;29;20054;-70
2022/05/04 02:00:11;;;;;;;60.30;8.20;;;;;;;29.12;56.69;97925.91;4831717;29;20046;-69
2022/05/04 02:03:07;;;;;;;58.90;9.27;;;;;;;29.13;54.82;97928.41;4834759;29;20049;-69
2022/05/04 02:05:43;;;;;;;55.50;10.93;;;;;;;29.22;56.23;97934.41;4835441;29;20053;-69
2022/05/04 02:08:38;;;;;;;59.17;9.48;;;;;;;29.27;55.89;97943.50;4838528;29;20682;-69
2022/05/04 02:11:28;;;;;;;45.20;9.02;;;;;;;29.31;56.14;97938.63;4832578;29;20141;-69
2022/05/04 02:14:19;;;;;;;73.25;10.15;;;;;;;29.33;56.30;97938.44;4837273;29;20065;-68
2022/05/04 02:17:08;;;;;;;58.15;7.50;;;;;;;29.41;54.78;97939.22;4820512;29;20114;-69
2022/05/04 02:19:57;;;;;;;62.45;7.93;;;;;;;29.48;54.50;97941.97;4836617;29;20053;-69
2022/05/04 02:22:39;;;;;;;65.20;9.18;;;;;;;29.79;52.96;97963.00;4836313;29;20779;-70
2022/05/04 02:25:28;;;;;;;60.97;10.52;;;;;;;29.94;53.94;97975.28;4836778;29;20125;-70
2022/05/04 02:28:10;;;;;;;74.75;11.65;;;;;;;30.05;52.70;97973.97;4836538;29;20065;-70
2022/05/04 02:30:59;;;;;;;58.67;11.15;;;;;;;30.67;56.60;97963.63;4836925;29;20819;-70
2022/05/04 02:33:43;;;;;;;71.80;10.27;;;;;;;30.55;51.82;97967.81;4836865;29;20054;-69
2022/05/04 02:39:39;;;;;;;64.50;9.50;;;;;;;31.11;52.85;97968.75;4836110;29;20874;-70
2022/05/04 02:42:34;;;;;;;68.30;9.70;;;;;;;31.17;50.53;97978.59;4837364;29;20072;-70
2022/05/04 02:45:30;;;;;;;62.17;10.85;;;;;;;31.64;51.15;97987.72;4836220;29;20050;-70
2022/05/04 02:48:19;;;;;;;45.97;9.10;;;;;;;31.46;49.75;97984.72;4837139;29;20058;-70
2022/05/04 02:51:08;;;;;;;58.33;9.07;;;;;;;31.77;48.72;97985.13;4836277;29;20118;-69
2022/05/04 02:53:58;;;;;;;59.90;9.02;;;;;;;31.69;47.91;97990.63;4836702;29;20054;-71
2022/05/04 02:56:46;;;;;;;54.55;7.68;;;;;;;31.57;49.06;97984.19;4835169;29;20858;-70
2022/05/04 02:59:41;;;;;;;52.80;9.57;;;;;;;31.77;48.25;97977.13;4835915;29;20088;-69
2022/05/04 03:02:29;;;;;;;52.53;9.27;;;;;;;32.49;46.76;97973.09;4820714;29;20490;-70
2022/05/04 03:05:18;;;;;;;60.33;10.45;;;;;;;32.26;49.37;97963.63;4835220;29;20606;-69
2022/05/04 03:08:01;;;;;;;52.75;7.47;;;;;;;32.85;53.05;97956.75;4820092;29;20056;-70
2022/05/04 03:13:49;;;;;;;46.88;8.20;;;;;;;32.64;48.16;97933.75;4835119;29;20046;-70
2022/05/04 03:16:42;;;;;;;49.45;8.57;;;;;;;33.21;45.53;97941.16;4835935;29;20058;-70
2022/05/04 03:19:31;;;;;;;53.83;10.15;;;;;;;33.07;47.60;97944.84;4835690;29;20070;-70
2022/05/04 03:22:20;;;;;;;41.80;7.82;;;;;;;33.22;42.87;97941.97;4834511;29;20061;-69
2022/05/04 03:25:02;;;;;;;30.13;6.07;;;;;;;33.60;42.70;97958.13;4819805;29;20058;-72
2022/05/04 03:27:51;;;;;;;32.15;5.78;;;;;;;33.36;40.91;97970.31;4832985;29;20382;-69
2022/05/04 03:30:33;;;;;;;49.85;6.88;;;;;;;33.53;43.12;97984.03;4835568;29;20061;-71
2022/05/04 03:33:22;;;;;;;58.08;7.60;;;;;;;33.66;41.71;98003.53;4829633;29;20058;-70
2022/05/04 03:36:04;;;;;;;42.50;6.97;;;;;;;33.59;40.55;98005.41;4835912;29;20053;-70
2022/05/04 03:38:54;;;;;;;41.10;6.97;;;;;;;34.20;43.04;98005.03;4818765;29;20109;-71
2022/05/04 03:41:36;;;;;;;38.07;6.23;;;;;;;33.58;39.58;98017.13;4836589;29;20050;-71
2022/05/04 03:44:31;;;;;;;38.72;7.15;;;;;;;33.74;40.62;98023.91;4839143;29;20054;-71
2022/05/04 03:47:26;;;;;;;30.02;5.20;;;;;;;33.85;43.08;98033.09;4835264;29;20053;-70
2022/05/04 03:50:02;;;;;;;34.80;5.32;;;;;;;33.73;39.54;98031.09;4835585;29;20869;-69
2022/05/04 03:52:57;;;;;;;;;;;;;;;33.60;45.38;98016.94;4835297;29;20049;-70
2022/05/04 03:55:33;;;;;;;38.80;6.03;;;;;;;32.98;45.65;98034.16;4832901;29;19935;-70
2022/05/04 03:58:28;;;;;;;;;;;;;;;32.62;42.37;98055.84;4835446;29;20116;-70
2022/05/04 04:01:07;;;;;;;30.52;5.63;;;;;;;32.49;43.22;98061.94;4834340;29;19935;-70
2022/05/04 04:03:56;;;;;;;49.60;6.70;;;;;;;32.45;45.70;98086.56;4835601;29;20058;-69
2022/05/04 04:06:45;;;;;;;59.65;9.13;;;;;;;32.23;46.17;98080.53;4835906;29;20142;-71
2022/05/04 04:09:27;;;;;;;47.22;7.53;;;;;;;32.28;46.06;98078.91;4834553;29;20057;-70
2022/05/04 04:12:16;;;;;;;43.88;7.22;;;;;;;32.59;48.63;98072.25;4835208;29;20050;-69
2022/05/04 04:15:06;;;;;;;49.85;7.78;;;;;;;32.36;50.07;98071.75;4833872;29;20114;-69
2022/05/04 04:17:48;;;;;;;41.78;7.97;;;;;;;32.29;47.50;98077.91;4832815;29;21059;-69
2022/05/04 04:23:44;;;;;;;51.00;6.72;;;;;;;32.21;46.12;98066.56;4815876;29;20065;-69
2022/05/04 04:26:26;;;;;;;52.28;9.50;;;;;;;32.03;44.87;98058.25;4834015;29;20049;-69
2022/05/04 04:29:15;;;;;;;37.85;5.55;;;;;;;32.18;45.85;98067.78;4834128;29;20057;-69
2022/05/04 04:31:57;;;;;;;48.38;6.40;;;;;;;32.78;47.53;98068.84;4835251;29;20046;-69
2022/05/04 04:34:46;;;;;;;31.80;6.15;;;;;;;32.53;44.45;98063.22;4832923;29;20138;-69
2022/05/04 04:37:35;;;;;;;42.47;6.13;;;;;;;32.82;43.37;98070.06;4834962;29;20652;-67
2022/05/04 04:40:17;;;;;;;34.28;5.72;;;;;;;32.59;42.58;98067.72;4831989;29;20777;-69
2022/05/04 04:43:07;;;;;;;34.70;5.30;;;;;;;32.43;43.34;98075.28;4835299;29;20126;-68
2022/05/04 04:45:55;;;;;;;24.40;5.70;;;;;;;32.55;46.35;98073.69;4840895;29;20118;-70
2022/05/04 04:48:51;;;;;;;34.55;5.32;;;;;;;32.49;43.10;98079.78;4836485;29;20637;-68
2022/05/04 04:51:27;;;;;;;29.23;5.50;;;;;;;32.46;41.42;98081.03;4835340;29;20054;-68
2022/05/04 04:54:22;;;;;;;27.23;4.53;;;;;;;33.00;38.11;98077.50;4835012;29;20061;-69
2022/05/04 04:56:58;;;;;;;27.45;6.35;;;;;;;33.67;38.85;98090.72;4817084;29;20062;-70
2022/05/04 04:59:52;;;;;;;35.90;4.80;;;;;;;33.62;40.91;98082.47;4833321;29;20057;-69
2022/05/04 05:02:29;;;;;;;33.85;5.13;;;;;;;33.93;39.74;98084.50;4834581;29;20052;-69
2022/05/04 05:05:19;;;;;;;26.42;4.88;;;;;;;34.02;41.07;98103.81;4834567;29;20882;-69
2022/05/04 05:08:01;;;;;;;24.38;4.13;;;;;;;33.50;37.02;98105.50;4833815;29;20122;-69
2022/05/04 05:10:50;;;;;;;21.50;5.53;;;;;;;34.27;37.85;98098.63;4831933;29;20158;-66
2022/05/04 05:16:06;;;;;;;23.70;4.78;;;;;;;34.43;37.92;98108.88;4817919;29;20054;-67
2022/05/04 05:16:41;;;;;;;27.05;4.18;;;;;;;35.05;37.84;98110.84;4832909;29;20114;-69
2022/05/04 05:19:30;;;;;;;27.67;4.75;;;;;;;35.05;38.72;98105.47;4834106;29;20037;-68
2022/05/04 05:22:25;;;;;;;59.80;7.35;;;;;;;34.93;39.14;98109.88;4834337;29;20065;-69
2022/05/04 05:25:01;;;;;;;28.48;4.15;;;;;;;34.40;38.81;98114.66;4834952;29;20133;-69
2022/05/04 05:27:50;;;;;;;25.77;4.38;;;;;;;34.15;38.04;98119.84;4834503;29;20542;-70
2022/05/04 05:30:41;;;;;;;19.98;3.65;;;;;;;34.54;37.43;98113.56;4833456;29;20106;-70
2022/05/04 05:33:24;;;;;;;20.35;3.95;;;;;;;34.20;37.49;98114.69;4833064;29;20133;-70
2022/05/04 05:36:13;;;;;;;28.75;4.22;;;;;;;33.61;36.83;98114.75;4833877;29;20408;-69
2022/05/04 05:39:03;;;;;;;31.13;4.97;;;;;;;33.87;38.11;98117.44;4852113;29;20756;-73
2022/05/04 05:41:47;;;;;;;17.13;3.75;;;;;;;33.49;36.63;98114.56;4847904;29;20065;-69
2022/05/04 05:44:43;;;;;;;20.40;3.72;;;;;;;34.17;39.98;98112.41;4834255;29;20058;-68
2022/05/04 05:47:30;;;;;;;17.30;3.70;;;;;;;33.39;37.84;98096.25;4837218;29;20069;-69
2022/05/04 05:50:20;;;;;;;24.08;3.53;;;;;;;33.87;37.89;98095.22;4833704;29;20061;-70
2022/05/04 05:53:02;;;;;;;24.40;5.65;;;;;;;34.03;40.43;98097.44;4834601;29;20065;-68
2022/05/04 05:55:51;;;;;;;16.90;3.85;;;;;;;33.41;37.68;98101.41;4830942;29;20050;-68
2022/05/04 05:58:33;;;;;;;22.88;4.13;;;;;;;33.46;38.61;98114.94;4832734;29;20081;-68
2022/05/04 06:01:28;;;;;;;31.42;5.75;;;;;;;34.10;42.42;98100.91;4831671;29;20069;-69
2022/05/04 06:04:05;;;;;;;32.42;5.10;;;;;;;34.08;36.85;98116.38;4834192;29;20077;-68
2022/05/04 06:07:00;;;;;;;;;;;;;;;34.38;39.33;98106.84;4835061;29;20579;-70
2022/05/04 06:09:40;;;;;;;26.20;4.60;;;;;;;33.52;36.54;98114.16;4833293;29;19936;-69
2022/05/04 06:12:29;;;;;;;26.40;4.47;;;;;;;34.44;37.71;98108.66;4831421;29;20502;-69
2022/05/04 06:15:18;;;;;;;18.08;4.32;;;;;;;34.52;36.65;98104.94;4831816;29;20060;-68
2022/05/04 06:18:01;;;;;;;24.67;4.72;;;;;;;34.90;36.47;98100.41;4830617;29;20054;-68
2022/05/04 06:20:50;;;;;;;17.40;4.10;;;;;;;35.00;34.80;98110.66;4832049;29;20946;-68
2022/05/04 06:23:32;;;;;;;27.00;4.03;;;;;;;34.90;36.39;98099.59;4831114;29;20072;-67
2022/05/04 06:26:23;;;;;;;26.35;4.57;;;;;;;34.73;35.23;98101.97;4832567;29;20229;-65
2022/05/04 06:29:05;;;;;;;25.05;4.22;;;;;;;34.80;35.48;98096.59;4833918;29;20054;-70
2022/05/04 06:34:56;;;;;;;18.83;3.72;;;;;;;35.38;38.60;98088.38;4831089;29;20064;-68
2022/05/04 06:37:44;;;;;;;21.73;4.53;;;;;;;34.69;34.58;98099.91;4831716;29;20126;-68
2022/05/04 06:40:27;;;;;;;30.40;4.88;;;;;;;35.17;35.89;98095.72;4815221;29;20054;-68
2022/05/04 06:43:15;;;;;;;24.45;3.95;;;;;;;35.27;35.71;98088.06;4829568;29;20173;-68
2022/05/04 06:45:58;;;;;;;24.17;4.60;;;;;;;35.11;35.93;98077.84;4832739;29;20068;-68
2022/05/04 06:48:52;;;;;;;25.13;5.13;;;;;;;34.86;35.56;98080.47;4829524;29;20453;-68
2022/05/04 06:51:42;;;;;;;26.75;3.80;;;;;;;34.88;35.74;98085.63;4834462;29;20060;-69
2022/05/04 06:54:32;;;;;;;30.02;4.82;;;;;;;35.21;35.46;98088.88;4830674;29;20075;-70
2022/05/04 06:57:13;;;;;;;20.48;4.07;;;;;;;35.30;34.44;98087.59;4829530;29;20045;-68
2022/05/04 07:00:04;;;;;;;20.27;4.10;;;;;;;35.25;33.95;98090.13;4807174;29;20046;-69
2022/05/04 07:02:47;;;;;;;30.42;5.13;;;;;;;35.29;36.13;98085.97;4832351;29;20060;-67
2022/05/04 07:05:36;;;;;;;23.92;5.75;;;;;;;34.83;35.43;98074.72;4816659;29;20139;-67
2022/05/04 07:08:18;;;;;;;28.10;6.25;;;;;;;34.99;35.27;98071.53;4817112;29;20063;-69
2022/05/04 07:11:07;;;;;;;27.30;5.05;;;;;;;35.01;35.59;98066.78;4831124;29;20118;-67
2022/05/04 07:13:49;;;;;;;27.35;5.38;;;;;;;35.03;36.64;98077.28;4817795;29;20058;-68
2022/05/04 07:16:40;;;;;;;31.23;5.40;;;;;;;35.02;35.26;98081.81;4831048;29;20058;-67
2022/05/04 07:19:28;;;;;;;24.80;6.03;;;;;;;35.00;35.27;98075.03;4830876;29;20064;-67
2022/05/04 07:22:11;;;;;;;28.63;6.22;;;;;;;34.91;34.36;98071.78;4831926;29;20591;-67
2022/05/04 07:25:07;;;;;;;25.77;6.28;;;;;;;34.74;35.14;98063.44;4829627;29;20172;-68
2022/05/04 07:27:43;;;;;;;23.23;5.85;;;;;;;35.09;34.49;98063.84;4831902;29;20065;-66
2022/05/04 07:30:31;;;;;;;27.95;6.55;;;;;;;34.94;34.40;98079.41;4829331;29;20165;-66
2022/05/04 07:33:14;;;;;;;117.60;32.65;;;;;;;34.49;38.90;98075.91;4832103;29;20076;-70
2022/05/04 07:36:03;;;;;;;161.63;42.80;;;;;;;33.66;42.21;98077.53;4832734;29;20058;-67
2022/05/04 07:38:46;;;;;;;136.70;41.60;;;;;;;33.04;42.87;98073.41;4800557;29;20141;-73
2022/05/04 07:44:34;;;;;;;139.77;34.88;;;;;;;32.85;43.61;98076.88;4831898;29;20616;-67
2022/05/04 07:47:25;;;;;;;121.00;33.03;;;;;;;32.88;42.65;98085.31;4831969;29;20195;-68
2022/05/04 07:50:08;;;;;;;116.40;36.97;;;;;;;32.99;43.97;98076.69;4829751;29;20057;-66
2022/05/04 07:53:04;;;;;;;125.03;35.65;;;;;;;33.07;42.92;98073.00;4832213;29;20069;-65
2022/05/04 07:55:52;;;;;;;102.15;33.80;;;;;;;33.16;44.01;98071.78;4832092;29;20058;-67
2022/05/04 07:58:42;;;;;;;95.93;35.80;;;;;;;33.16;43.08;98076.28;4829340;29;20053;-64
2022/05/04 08:04:31;;;;;;;105.30;42.22;;;;;;;32.86;42.24;98054.50;4829836;29;20142;-65
2022/05/04 08:07:12;;;;;;;81.95;43.47;;;;;;;32.79;43.96;98038.47;4830168;29;20065;-66
2022/05/04 08:10:01;;;;;;;113.38;47.28;;;;;;;32.57;44.31;98037.75;4829604;29;20114;-66
2022/05/04 08:12:44;;;;;;;105.95;43.97;;;;;;;32.59;44.76;98040.22;4833180;29;20061;-66
2022/05/04 08:15:33;;;;;;;85.90;40.50;;;;;;;32.73;43.64;98044.59;4835527;29;20058;-66
2022/05/04 08:18:25;;;;;;;87.43;35.78;;;;;;;32.85;44.01;98029.66;4834945;29;20061;-65
2022/05/04 08:21:08;;;;;;;71.38;32.22;;;;;;;32.94;44.01;98028.44;4835352;29;20053;-65
2022/05/04 08:23:56;;;;;;;98.03;34.85;;;;;;;32.87;43.59;98030.28;4836340;29;20814;-64
2022/05/04 08:26:49;;;;;;;74.38;33.33;;;;;;;32.75;45.28;98031.88;4836257;29;20804;-65
2022/05/04 08:29:44;;;;;;;75.03;33.20;;;;;;;32.95;43.62;98026.59;4836341;29;20050;-65
2022/05/04 08:32:20;;;;;;;77.82;34.22;;;;;;;32.99;44.89;98023.28;4836429;29;20057;-66
2022/05/04 08:35:09;;;;;;;81.95;33.20;;;;;;;33.04;43.60;98030.69;4836122;29;20045;-65
2022/05/04 08:37:52;;;;;;;63.67;34.65;;;;;;;32.83;42.92;98029.03;4839319;29;20568;-65
2022/05/04 08:40:40;;;;;;;73.72;37.33;;;;;;;32.81;42.86;98025.72;4852180;29;20133;-65
2022/05/04 08:43:24;;;;;;;95.72;38.95;;;;;;;32.71;43.39;98021.81;4836293;29;20077;-66
2022/05/04 08:46:18;;;;;;;73.78;38.60;;;;;;;32.67;42.99;98002.69;4836207;29;20056;-67
2022/05/04 08:49:02;;;;;;;93.68;37.03;;;;;;;32.65;43.61;97994.06;4830605;29;20096;-67
2022/05/04 08:51:57;;;;;;;88.82;36.63;;;;;;;32.73;44.41;97993.09;4851492;29;20061;-67
2022/05/04 08:54:33;;;;;;;86.35;40.05;;;;;;;32.62;43.81;97986.47;4853294;29;20129;-68
2022/05/04 08:57:22;;;;;;;79.07;32.15;;;;;;;32.63;43.36;97985.47;4854124;29;20049;-69
2022/05/04 09:00:05;;;;;;;71.53;27.92;;;;;;;32.74;42.48;97990.22;4835583;29;20378;-69
2022/05/04 09:03:01;;;;;;;73.68;23.48;;;;;;;32.68;41.83;97989.19;4835464;29;20065;-67
2022/05/04 09:05:54;;;;;;;69.30;21.10;;;;;;;32.71;41.25;97987.97;4835449;29;20069;-70
2022/05/04 09:09:13;;;;;;;53.17;22.48;;;;;;;32.76;41.93;97977.50;4836104;29;20054;-69
2022/05/04 09:12:03;;;;;;;77.13;23.10;;;;;;;32.70;41.21;97970.31;4835617;29;20056;-68
2022/05/04 09:14:52;;;;;;;63.63;22.40;;;;;;;32.72;40.76;97973.59;4836178;29;20114;-68
2022/05/04 09:17:34;;;;;;;51.90;23.10;;;;;;;32.80;41.19;97975.25;4835017;29;20061;-68
2022/05/04 09:23:32;;;;;;;75.90;27.85;;;;;;;32.63;40.34;97985.47;4833651;29;20077;-68
2022/05/04 09:26:36;;;;;;;60.97;25.63;;;;;;;32.54;40.96;97986.66;4834280;29;20061;-68
2022/05/04 09:29:36;;;;;;;70.70;26.58;;;;;;;32.58;40.64;97967.38;4835457;29;20057;-68
2022/05/04 09:32:24;;;;;;;57.13;26.92;;;;;;;32.66;42.84;97967.19;4835228;29;20498;-69
2022/05/04 09:35:14;;;;;;;72.78;30.52;;;;;;;32.72;40.88;97962.94;4835700;29;20050;-68
2022/05/04 09:47:21;;;;;;;61.88;28.65;;;;;;;32.70;39.39;97962.31;4820079;29;20068;-69
2022/05/04 09:50:17;;;;;;;76.18;27.45;;;;;;;32.61;38.52;97955.47;4837681;29;20152;-68
2022/05/04 09:53:14;;;;;;;56.00;24.92;;;;;;;32.70;41.19;97946.28;4834373;29;20060;-68
2022/05/04 09:56:04;;;;;;;65.03;24.10;;;;;;;32.68;40.17;97937.63;4835170;29;20054;-68
2022/05/04 09:58:54;;;;;;;63.78;22.60;;;;;;;32.76;38.65;97947.31;4835550;29;20442;-68
2022/05/04 10:01:37;;;;;;;57.65;20.40;;;;;;;32.68;38.19;97945.63;4835479;29;20073;-68
2022/05/04 10:04:28;;;;;;;60.05;20.15;;;;;;;32.75;38.75;97941.16;4834327;29;20046;-68
2022/05/04 10:07:22;;;;;;;45.47;18.75;;;;;;;32.81;38.48;97935.00;4832257;29;20487;-68
2022/05/04 10:10:17;;;;;;;54.88;19.40;;;;;;;32.80;37.60;97933.38;4834403;29;20070;-68
2022/05/04 10:13:00;;;;;;;49.03;18.23;;;;;;;32.88;38.66;97925.16;4834036;29;20118;-65
2022/05/04 10:15:51;;;;;;;51.60;17.42;;;;;;;32.90;37.37;97922.25;4832841;29;20049;-67
2022/05/04 10:18:34;;;;;;;63.50;16.00;;;;;;;32.89;37.08;97923.28;4832571;29;20058;-66
2022/05/04 10:21:25;;;;;;;43.33;16.83;;;;;;;32.86;36.54;97916.53;4832477;29;20705;-67
2022/05/04 10:24:07;;;;;;;38.28;16.48;;;;;;;32.87;37.15;97912.84;4835430;29;20109;-66
2022/05/04 10:26:57;;;;;;;34.13;15.45;;;;;;;32.75;36.97;97914.47;4835422;29;20117;-64
2022/05/04 10:32:51;;;;;;;39.20;17.90;;;;;;;32.81;37.18;97886.94;4836832;29;20560;-62
2022/05/04 10:35:41;;;;;;;53.25;18.73;;;;;;;32.84;38.52;97894.56;4836744;29;20053;-66
2022/05/04 10:38:35;;;;;;;57.88;17.85;;;;;;;32.76;36.54;97894.75;4835180;29;20057;-69
2022/05/04 10:41:43;;;;;;;50.60;19.38;;;;;;;32.72;37.50;97888.22;4832416;29;20042;-66
2022/05/04 10:44:55;;;;;;;;;;;;;;;32.65;37.24;97882.00;4834748;29;20054;-65
2022/05/04 10:47:37;;;;;;;46.15;19.10;;;;;;;32.73;37.17;97884.50;4831457;29;19928;-65
2022/05/04 10:50:26;;;;;;;60.63;21.35;;;;;;;32.77;37.41;97880.41;4835145;29;20494;-66
2022/05/04 10:53:22;;;;;;;47.58;18.95;;;;;;;32.74;36.95;97883.47;4834668;29;20764;-65
2022/05/04 10:56:12;;;;;;;48.65;22.13;;;;;;;32.72;37.02;97877.53;4836167;29;20053;-66
2022/05/04 10:58:57;;;;;;;44.35;20.02;;;;;;;32.63;37.97;97868.06;4834696;29;20061;-67
2022/05/04 11:04:48;;;;;;;42.90;16.83;;;;;;;32.64;37.79;97865.19;4848166;29;20704;-65
2022/05/04 11:07:43;;;;;;;57.05;18.75;;;;;;;32.59;38.88;97858.81;4859955;29;20048;-65
2022/05/04 11:10:34;;;;;;;41.95;16.40;;;;;;;32.53;36.74;97867.66;4865606;29;20060;-64
2022/05/04 11:13:17;;;;;;;32.65;15.75;;;;;;;32.50;38.04;97863.53;4863579;29;20512;-64
2022/05/04 11:16:05;;;;;;;41.88;15.30;;;;;;;32.50;37.16;97857.38;4861764;29;20045;-65
2022/05/04 11:18:49;;;;;;;40.72;14.48;;;;;;;32.55;37.81;97858.44;4859898;29;20124;-64
2022/05/04 11:21:37;;;;;;;38.15;14.88;;;;;;;32.59;37.03;97856.97;4862486;29;21920;-65
2022/05/04 11:24:22;;;;;;;36.08;14.18;;;;;;;32.51;38.19;97864.34;4864559;29;20061;-64
2022/05/04 11:27:16;;;;;;;42.95;16.23;;;;;;;32.59;37.31;97867.66;4864372;29;20053;-64
2022/05/04 11:30:05;;;;;;;38.97;15.55;;;;;;;32.50;37.13;97852.88;4862203;29;20140;-64
2022/05/04 11:32:51;;;;;;;34.15;16.38;;;;;;;32.51;38.16;97856.34;4865788;29;20045;-64
2022/05/04 11:35:40;;;;;;;32.40;15.23;;;;;;;32.45;38.30;97859.84;4856199;29;20169;-64
2022/05/04 11:38:23;;;;;;;42.75;18.90;;;;;;;32.41;37.45;97856.75;4851080;29;20081;-65
2022/05/04 11:41:13;;;;;;;37.40;16.70;;;;;;;32.43;38.96;97861.91;4852752;29;20053;-65
2022/05/04 11:43:58;;;;;;;34.83;17.95;;;;;;;32.46;37.45;97862.31;4862419;29;20167;-64
2022/05/04 11:46:49;;;;;;;39.47;17.90;;;;;;;32.49;37.42;97861.88;4857631;29;20041;-65
2022/05/04 11:49:34;;;;;;;42.00;18.85;;;;;;;32.48;37.57;97862.94;4848910;29;20144;-69
2022/05/04 11:52:24;;;;;;;44.20;19.05;;;;;;;32.43;37.37;97875.22;4843236;29;20050;-68
2022/05/04 11:55:13;;;;;;;38.85;18.42;;;;;;;32.42;38.78;97865.59;4860274;29;20058;-68
2022/05/04 11:57:57;;;;;;;35.05;17.65;;;;;;;32.42;37.92;97876.25;4860500;29;20083;-67
2022/05/04 12:00:46;;;;;;;38.92;16.95;;;;;;;32.36;38.37;97877.06;4854164;29;20057;-67
2022/05/04 12:03:31;;;;;;;35.13;16.05;;;;;;;32.30;38.64;97873.38;4839143;29;20041;-67
2022/05/04 12:06:21;;;;;;;42.92;19.00;;;;;;;32.28;37.24;97876.25;4862756;29;20121;-67
2022/05/04 12:09:18;;;;;;;36.65;17.00;;;;;;;32.36;37.46;97879.75;4843766;29;20506;-67
2022/05/04 12:12:08;;;;;;;42.90;18.90;;;;;;;32.39;37.19;97882.84;4842203;29;20081;-67
2022/05/04 12:15:00;;;;;;;35.92;18.23;;;;;;;32.32;38.09;97882.00;4849118;29;20157;-67
2022/05/04 12:17:43;;;;;;;42.03;18.83;;;;;;;32.29;37.74;97885.06;4837978;29;20068;-67
2022/05/04 12:20:34;;;;;;;35.58;19.15;;;;;;;32.22;38.72;97890.41;4841225;29;20093;-68
2022/05/04 12:23:17;;;;;;;43.47;19.65;;;;;;;32.21;38.75;97891.41;4841826;29;20088;-66
2022/05/04 12:26:06;;;;;;;52.20;21.05;;;;;;;32.34;37.16;97889.78;4832032;29;20057;-67
2022/05/04 12:35:05;;;;;;;45.90;20.02;;;;;;;32.20;38.42;97896.94;4839524;29;20066;-67
2022/05/04 12:37:47;;;;;;;42.10;20.83;;;;;;;32.09;39.54;97909.00;4838873;29;20050;-67
2022/05/04 12:40:44;;;;;;;43.50;21.75;;;;;;;32.12;40.01;97910.44;4841905;29;20057;-66
2022/05/04 12:43:30;;;;;;;44.47;21.00;;;;;;;32.06;39.44;97913.91;4832564;29;20050;-67
2022/05/04 12:46:20;;;;;;;40.17;21.80;;;;;;;32.02;39.77;97915.31;4843534;29;20065;-67
2022/05/04 12:49:04;;;;;;;37.85;20.83;;;;;;;31.92;40.61;97913.06;4845149;29;20381;-68
2022/05/04 12:51:54;;;;;;;43.38;20.42;;;;;;;31.94;40.71;97917.16;4838680;29;20072;-68
2022/05/04 12:54:37;;;;;;;46.70;22.17;;;;;;;31.87;40.45;97910.97;4834657;29;20056;-67
2022/05/04 12:57:26;;;;;;;45.83;23.20;;;;;;;31.88;39.92;97920.63;4847985;29;20776;-68
2022/05/04 13:00:07;;;;;;;46.60;22.02;;;;;;;31.89;39.72;97924.13;4843603;29;20081;-68
2022/05/04 13:02:57;;;;;;;37.08;22.75;;;;;;;31.82;40.43;97931.25;4834432;29;20050;-67
2022/05/04 13:05:46;;;;;;;49.13;23.20;;;;;;;31.78;40.60;97932.66;4817230;29;20059;-67
2022/05/04 13:08:29;;;;;;;43.60;23.65;;;;;;;31.75;40.77;97936.56;4801544;29;20470;-68
2022/05/04 13:11:18;;;;;;;56.85;27.98;;;;;;;31.69;41.08;97944.53;4852688;29;20076;-68
2022/05/04 13:13:59;;;;;;;61.17;33.80;;;;;;;31.63;41.50;97946.13;4852491;29;20069;-67
2022/05/04 13:16:50;;;;;;;70.10;34.67;;;;;;;31.46;42.23;97950.94;4852161;29;20152;-69
2022/05/04 13:19:34;;;;;;;78.85;39.65;;;;;;;31.42;42.40;97948.88;4852259;29;20415;-67
2022/05/04 13:22:23;;;;;;;70.95;37.75;;;;;;;31.35;43.93;97959.47;4851908;29;20133;-66
2022/05/04 13:25:06;;;;;;;58.33;35.50;;;;;;;31.30;42.84;97967.22;4850544;29;20046;-67
2022/05/04 13:27:56;;;;;;;69.88;35.40;;;;;;;31.26;42.77;97959.81;4514031;29;10000758;-67
2022/05/04 13:30:38;;;;;;;73.95;37.08;;;;;;;31.14;42.32;97983.47;4850006;29;20049;-69
2022/05/04 13:33:27;;;;;;;81.68;46.13;;;;;;;31.05;41.94;97973.97;4847218;29;20061;-66
2022/05/04 13:36:16;;;;;;;99.18;51.70;;;;;;;31.03;41.81;97984.00;4847632;29;20870;-67
2022/05/04 13:38:57;;;;;;;84.75;47.28;;;;;;;31.08;42.13;97984.25;4849567;29;21259;-67
2022/05/04 13:41:47;;;;;;;83.00;42.45;;;;;;;30.81;43.14;97983.16;4849460;29;20061;-69